Terminal Aerodrome Forecast
Issued by NWS Sterling, VA

Current Version | Previous Version | Graphics & Text | Print | Product List | Glossary On
Versions: 1 2 3 4 5 6 7 8 9 10 11 12 13 14 15 16 17 18 19 20 21
000
FTUS41 KLWX 171500 AAA
TAFIAD
TAF AMD
KIAD 171502Z 1715/1818 VRB03KT P6SM FEW050
     FM171900 19004KT P6SM FEW050
     FM172300 VRB03KT P6SM FEW050
     FM181600 34006KT P6SM SCT050=

USA.gov is the U.S. government's official web portal to all federal, state and local government web resources and services.